Time;durP1;ratioP1;P1;durP2;ratioP2;P2;SDS_P1;SDS_P2;PMS_P1;PMS_P2;Temp;Humidity;BMP_temperature;BMP_pressure;BME280_temperature;BME280_humidity;BME280_pressure;Samples;Min_cycle;Max_cycle;Signal;HPM_P1;HPM_P2
2022/01/24 00:01:30;;;;;;;23.93;21.23;;;0.00;99.90;;;;;;5015837;28;20447;-79
2022/01/24 00:03:58;;;;;;;24.83;22.10;;;0.10;99.90;;;;;;5020067;28;20536;-79
2022/01/24 00:06:26;;;;;;;23.97;21.30;;;0.10;99.90;;;;;;5022114;28;20467;-78
2022/01/24 00:08:52;;;;;;;24.07;21.50;;;0.10;99.90;;;;;;5028210;28;20459;-80
2022/01/24 00:11:24;;;;;;;23.43;20.97;;;0.00;99.90;;;;;;5035655;28;20428;-79
2022/01/24 00:17:01;;;;;;;24.97;22.37;;;0.00;99.90;;;;;;5014490;28;20448;-80
2022/01/24 00:27:42;;;;;;;23.83;21.33;;;-0.10;99.90;;;;;;5011077;28;20455;-79
2022/01/24 00:30:10;;;;;;;23.43;21.10;;;-0.10;99.90;;;;;;5012060;28;20456;-79
2022/01/24 00:32:39;;;;;;;24.87;22.27;;;-0.10;99.90;;;;;;5013019;28;20450;-79
2022/01/24 00:35:06;;;;;;;24.37;21.90;;;-0.10;99.90;;;;;;5011657;28;20463;-79
2022/01/24 00:37:34;;;;;;;24.67;21.37;;;-0.10;99.90;;;;;;5015422;28;20497;-79
2022/01/24 00:40:01;;;;;;;24.63;22.10;;;-0.10;99.90;;;;;;5015338;28;20451;-79
2022/01/24 00:42:34;;;;;;;23.97;21.57;;;-0.10;99.90;;;;;;5008509;28;20443;-79
2022/01/24 00:45:10;;;;;;;23.23;20.73;;;-0.20;99.90;;;;;;5015331;28;20439;-79
2022/01/24 00:47:50;;;;;;;22.10;19.33;;;-0.20;99.90;;;;;;5009723;28;20457;-79
2022/01/24 00:55:48;;;;;;;23.07;20.67;;;-0.30;99.90;;;;;;5008997;28;20448;-79
2022/01/24 00:58:15;;;;;;;23.20;20.87;;;-0.30;99.90;;;;;;5013819;28;20483;-79
2022/01/24 01:00:42;;;;;;;24.17;21.70;;;-0.30;99.90;;;;;;5016208;28;20512;-79
2022/01/24 01:03:11;;;;;;;23.63;21.23;;;-0.30;99.90;;;;;;5014595;28;20463;-79
2022/01/24 01:05:54;;;;;;;24.07;21.70;;;-0.30;99.90;;;;;;5014163;28;20443;-79
2022/01/24 01:19:19;;;;;;;26.60;22.37;;;-0.30;99.90;;;;;;5014066;28;20451;-80
2022/01/24 01:21:46;;;;;;;23.53;21.23;;;-0.30;99.90;;;;;;5014578;28;20456;-79
2022/01/24 01:24:13;;;;;;;25.47;22.77;;;-0.30;99.90;;;;;;5015448;28;20494;-79
2022/01/24 01:26:45;;;;;;;24.60;21.97;;;-0.30;99.90;;;;;;5015044;28;20528;-80
2022/01/24 01:29:17;;;;;;;26.27;22.43;;;-0.40;99.90;;;;;;5013883;28;20471;-80
2022/01/24 01:31:52;;;;;;;23.57;21.27;;;-0.40;99.90;;;;;;5014960;28;20463;-81
2022/01/24 01:34:37;;;;;;;25.00;21.97;;;-0.40;99.90;;;;;;5014505;28;20919;-80
2022/01/24 01:37:25;;;;;;;26.93;22.40;;;-0.40;99.90;;;;;;5015808;28;20447;-80
2022/01/24 01:54:19;;;;;;;25.97;22.33;;;-0.50;99.90;;;;;;5013266;28;20478;-80
2022/01/24 01:56:46;;;;;;;23.60;21.13;;;-0.50;99.90;;;;;;5008098;28;20486;-81
2022/01/24 01:59:13;;;;;;;24.33;21.90;;;-0.60;99.90;;;;;;5013741;28;20479;-82
2022/01/24 02:01:40;;;;;;;24.17;21.67;;;-0.60;99.90;;;;;;5013548;28;20945;-80
2022/01/24 02:04:07;;;;;;;24.27;21.90;;;-0.60;99.90;;;;;;5015344;28;20438;-80
2022/01/24 02:06:35;;;;;;;23.47;21.03;;;-0.60;99.90;;;;;;5013485;28;20998;-80
2022/01/24 02:09:05;;;;;;;23.80;21.37;;;-0.60;99.90;;;;;;5014883;28;20459;-80
2022/01/24 02:11:31;;;;;;;24.10;21.50;;;-0.60;99.90;;;;;;5026285;28;20786;-80
2022/01/24 02:14:03;;;;;;;23.20;21.00;;;-0.70;99.90;;;;;;5014912;28;20471;-79
2022/01/24 02:16:39;;;;;;;23.20;20.50;;;-0.70;99.90;;;;;;5013313;28;20451;-82
2022/01/24 02:19:14;;;;;;;26.13;21.47;;;-0.70;99.90;;;;;;5010877;28;20857;-81
2022/01/24 02:21:58;;;;;;;23.83;21.50;;;-0.70;99.90;;;;;;5014421;28;20435;-80
2022/01/24 02:24:25;;;;;;;22.70;20.47;;;-0.70;99.90;;;;;;5013753;28;20531;-80
2022/01/24 02:26:55;;;;;;;26.53;21.57;;;-0.70;99.90;;;;;;5013281;28;20452;-81
2022/01/24 02:29:32;;;;;;;26.53;22.13;;;-0.70;99.90;;;;;;5013547;28;20917;-80
2022/01/24 02:31:59;;;;;;;23.87;21.47;;;-0.80;99.90;;;;;;5014943;28;20439;-81
2022/01/24 02:34:33;;;;;;;24.33;21.83;;;-0.80;99.90;;;;;;5015137;28;20479;-80
2022/01/24 02:37:03;;;;;;;23.73;21.20;;;-0.70;99.90;;;;;;5013347;28;20455;-79
2022/01/24 02:39:46;;;;;;;25.30;22.77;;;-0.70;99.90;;;;;;5014654;28;20835;-81
2022/01/24 02:50:54;;;;;;;23.23;20.80;;;-0.80;99.90;;;;;;5014342;28;20858;-81
2022/01/24 02:53:23;;;;;;;23.73;21.33;;;-0.80;99.90;;;;;;5013095;28;20452;-81
2022/01/24 02:55:50;;;;;;;22.50;19.90;;;-0.80;99.90;;;;;;5012970;28;20471;-81
2022/01/24 02:58:17;;;;;;;24.17;21.67;;;-0.80;99.90;;;;;;5028189;22;20467;-77
2022/01/24 03:00:47;;;;;;;25.37;22.87;;;-0.80;99.90;;;;;;4995859;28;20477;-77
2022/01/24 03:03:14;;;;;;;23.47;21.27;;;-0.80;99.90;;;;;;4994480;28;20448;-77
2022/01/24 03:05:40;;;;;;;23.10;20.80;;;-0.80;99.90;;;;;;4995714;28;20476;-77
2022/01/24 03:08:07;;;;;;;23.87;21.57;;;-0.90;99.90;;;;;;4994234;28;20476;-78
2022/01/24 03:10:39;;;;;;;24.53;22.20;;;-0.80;99.90;;;;;;4988175;28;20973;-78
2022/01/24 03:13:30;;;;;;;24.73;22.23;;;-0.80;99.90;;;;;;4987642;28;20472;-78
2022/01/24 03:15:59;;;;;;;23.87;21.50;;;-0.80;99.90;;;;;;4965557;28;20912;-78
2022/01/24 03:18:27;;;;;;;22.70;20.57;;;-0.90;99.90;;;;;;4988416;28;20513;-77
2022/01/24 03:20:54;;;;;;;24.00;21.60;;;-1.00;99.90;;;;;;4980417;28;20441;-77
2022/01/24 03:23:22;;;;;;;24.40;21.90;;;-1.10;99.90;;;;;;4981885;28;20434;-77
2022/01/24 03:25:51;;;;;;;24.83;22.43;;;-1.10;99.90;;;;;;4988104;28;20512;-77
2022/01/24 03:28:22;;;;;;;23.43;21.13;;;-1.10;99.90;;;;;;4990966;28;20464;-78
2022/01/24 03:30:49;;;;;;;23.80;21.40;;;-1.10;99.90;;;;;;4982566;28;20444;-77
2022/01/24 03:33:16;;;;;;;22.87;20.80;;;-1.10;99.90;;;;;;4990427;28;20433;-77
2022/01/24 03:35:43;;;;;;;25.03;22.50;;;-1.10;99.90;;;;;;4985285;28;20475;-77
2022/01/24 03:38:11;;;;;;;24.57;22.07;;;-1.10;99.90;;;;;;4976940;28;20497;-78
2022/01/24 03:40:39;;;;;;;24.50;22.07;;;-1.10;99.90;;;;;;4985467;28;20496;-78
2022/01/24 03:43:07;;;;;;;24.90;22.30;;;-1.20;99.90;;;;;;4975886;28;20585;-77
2022/01/24 03:45:41;;;;;;;23.27;20.97;;;-1.20;99.90;;;;;;4977667;28;20858;-79
2022/01/24 03:48:11;;;;;;;23.53;21.23;;;-1.10;99.90;;;;;;4977174;28;20462;-78
2022/01/24 03:50:38;;;;;;;22.87;20.47;;;-1.20;99.90;;;;;;4976433;28;20465;-77
2022/01/24 03:53:06;;;;;;;24.23;21.67;;;-1.10;99.90;;;;;;4976810;28;20437;-78
2022/01/24 03:55:34;;;;;;;25.07;22.70;;;-1.20;99.90;;;;;;4972159;28;20528;-77
2022/01/24 03:58:01;;;;;;;24.63;22.33;;;-1.20;99.90;;;;;;4972668;28;20537;-77
2022/01/24 04:00:29;;;;;;;24.80;22.23;;;-1.20;99.90;;;;;;4959878;28;20525;-77
2022/01/24 04:02:56;;;;;;;25.53;23.23;;;-1.20;99.90;;;;;;4973516;28;20461;-77
2022/01/24 04:05:23;;;;;;;23.73;21.30;;;-1.20;99.90;;;;;;4982722;28;20449;-78
2022/01/24 04:07:50;;;;;;;24.57;22.27;;;-1.20;99.90;;;;;;4971891;28;20453;-79
2022/01/24 04:10:19;;;;;;;23.90;21.40;;;-1.20;99.90;;;;;;4973569;28;20449;-77
2022/01/24 04:12:46;;;;;;;26.17;22.03;;;-1.20;99.90;;;;;;4983596;28;20465;-77
2022/01/24 04:15:26;;;;;;;28.40;23.47;;;-1.10;99.90;;;;;;4982671;28;20489;-77
2022/01/24 04:18:12;;;;;;;28.37;24.20;;;-1.20;99.90;;;;;;4978932;28;20785;-77
2022/01/24 04:23:24;;;;;;;27.07;24.10;;;-1.20;99.90;;;;;;4975149;28;20469;-77
2022/01/24 04:25:50;;;;;;;27.03;24.13;;;-1.20;99.90;;;;;;4975538;28;20540;-78
2022/01/24 04:28:17;;;;;;;27.00;24.17;;;-1.20;99.90;;;;;;4984547;28;20461;-80
2022/01/24 04:30:44;;;;;;;29.70;25.03;;;-1.20;99.90;;;;;;4967546;28;20466;-79
2022/01/24 04:33:12;;;;;;;29.40;26.30;;;-1.20;99.90;;;;;;4972569;28;20515;-78
2022/01/24 04:35:39;;;;;;;27.03;24.17;;;-1.30;99.90;;;;;;4973550;28;20789;-79
2022/01/24 04:38:06;;;;;;;25.93;23.33;;;-1.30;99.90;;;;;;4972505;28;20457;-81
2022/01/24 04:40:33;;;;;;;24.80;22.20;;;-1.30;99.90;;;;;;4975076;28;20438;-79
2022/01/24 04:43:22;;;;;;;23.97;21.63;;;-1.40;99.90;;;;;;4971538;28;20465;-79
2022/01/24 04:46:03;;;;;;;25.37;22.67;;;-1.40;99.90;;;;;;4963583;28;20443;-77
2022/01/24 04:51:29;;;;;;;26.70;23.77;;;-1.50;99.90;;;;;;4979469;28;20964;-78
2022/01/24 04:56:46;;;;;;;25.53;23.00;;;-1.50;99.90;;;;;;4961165;28;20473;-78
2022/01/24 04:59:13;;;;;;;26.53;23.73;;;-1.40;99.90;;;;;;4994382;28;20468;-77
2022/01/24 05:01:39;;;;;;;26.07;23.27;;;-1.50;99.90;;;;;;5004101;28;20471;-77
2022/01/24 05:04:08;;;;;;;25.43;22.80;;;-1.50;99.90;;;;;;5005360;28;20936;-77
2022/01/24 05:06:35;;;;;;;24.27;21.87;;;-1.50;99.90;;;;;;4983412;28;20452;-77
2022/01/24 05:09:01;;;;;;;25.37;22.83;;;-1.50;99.90;;;;;;4981903;28;21015;-77
2022/01/24 05:11:37;;;;;;;25.07;22.57;;;-1.50;99.90;;;;;;4995973;28;21193;-77
2022/01/24 05:25:03;;;;;;;25.77;23.00;;;-1.40;99.90;;;;;;4988405;28;20487;-77
2022/01/24 05:27:31;;;;;;;25.97;23.23;;;-1.40;99.90;;;;;;5003298;28;20436;-77
2022/01/24 05:29:57;;;;;;;26.13;23.33;;;-1.40;99.90;;;;;;5002123;28;20455;-77
2022/01/24 05:32:24;;;;;;;27.80;24.67;;;-1.40;99.90;;;;;;4985846;28;20961;-77
2022/01/24 05:34:52;;;;;;;26.63;23.30;;;-1.40;99.90;;;;;;5005454;28;20490;-77
2022/01/24 05:37:19;;;;;;;27.87;22.97;;;-1.40;99.90;;;;;;4984186;28;20503;-77
2022/01/24 05:39:46;;;;;;;26.63;22.93;;;-1.50;99.90;;;;;;5002898;28;20898;-77
2022/01/24 05:42:13;;;;;;;24.80;22.30;;;-1.50;99.90;;;;;;5004385;28;20435;-77
2022/01/24 05:44:40;;;;;;;25.00;22.53;;;-1.50;99.90;;;;;;4983307;28;20800;-78
2022/01/24 05:47:07;;;;;;;28.10;23.10;;;-1.50;99.90;;;;;;5005657;28;20431;-77
2022/01/24 05:49:34;;;;;;;26.20;23.50;;;-1.60;99.90;;;;;;5002076;28;20459;-77
2022/01/24 05:52:03;;;;;;;26.77;23.63;;;-1.60;99.90;;;;;;5000922;28;20448;-77
2022/01/24 05:54:30;;;;;;;28.37;24.77;;;-1.50;99.90;;;;;;4982658;28;20440;-77
2022/01/24 05:56:57;;;;;;;26.43;22.87;;;-1.50;99.90;;;;;;4990094;28;20503;-77
2022/01/24 05:59:24;;;;;;;25.13;22.47;;;-1.60;99.90;;;;;;5017027;28;20463;-78
2022/01/24 06:01:51;;;;;;;24.47;21.97;;;-1.70;99.90;;;;;;5003534;28;20829;-76
2022/01/24 06:04:17;;;;;;;23.97;21.57;;;-1.70;99.90;;;;;;5001473;28;20467;-76
2022/01/24 06:06:44;;;;;;;24.93;22.37;;;-1.70;99.90;;;;;;4983637;28;20820;-77
2022/01/24 06:09:12;;;;;;;25.33;22.67;;;-1.70;99.90;;;;;;4980880;28;20475;-76
2022/01/24 06:11:39;;;;;;;26.30;23.50;;;-1.60;99.90;;;;;;5001337;28;20933;-77
2022/01/24 06:14:06;;;;;;;24.37;21.80;;;-1.60;99.90;;;;;;5000840;28;20436;-76
2022/01/24 06:16:33;;;;;;;24.97;22.27;;;-1.50;99.90;;;;;;5000955;28;20555;-77
2022/01/24 06:19:00;;;;;;;23.87;21.37;;;-1.50;99.90;;;;;;4999944;28;20459;-76
2022/01/24 06:21:27;;;;;;;23.97;21.57;;;-1.50;99.90;;;;;;4989065;28;20460;-77
2022/01/24 06:23:54;;;;;;;26.77;24.07;;;-1.50;99.90;;;;;;4986132;28;20896;-77
2022/01/24 06:26:22;;;;;;;25.67;23.00;;;-1.50;99.90;;;;;;4982215;28;20452;-76
2022/01/24 06:28:49;;;;;;;25.30;22.40;;;-1.40;99.90;;;;;;4981509;28;20474;-77
2022/01/24 06:31:15;;;;;;;25.53;22.93;;;-1.30;99.90;;;;;;5000472;28;20464;-77
2022/01/24 06:33:42;;;;;;;26.07;23.37;;;-1.30;99.90;;;;;;4984691;28;21013;-77
2022/01/24 06:36:09;;;;;;;25.70;23.07;;;-1.30;99.90;;;;;;5003773;28;20824;-76
2022/01/24 06:38:36;;;;;;;25.57;22.83;;;-1.20;99.90;;;;;;5002005;28;20814;-76
2022/01/24 06:41:03;;;;;;;26.43;23.73;;;-1.20;99.90;;;;;;5000892;28;20503;-78
2022/01/24 06:43:31;;;;;;;25.53;22.83;;;-1.10;99.90;;;;;;4989025;28;20992;-75
2022/01/24 06:45:58;;;;;;;27.07;24.13;;;-1.00;99.90;;;;;;5002297;28;20491;-76
2022/01/24 06:48:25;;;;;;;24.70;22.17;;;-1.00;99.90;;;;;;4985746;28;20472;-78
2022/01/24 06:50:52;;;;;;;24.70;22.20;;;-1.00;99.90;;;;;;4979057;28;20532;-79
2022/01/24 06:53:18;;;;;;;26.03;23.33;;;-0.90;99.90;;;;;;4977154;28;20472;-77
2022/01/24 06:55:45;;;;;;;25.23;22.70;;;-0.80;99.90;;;;;;4979184;28;20841;-76
2022/01/24 06:58:12;;;;;;;25.03;22.40;;;-0.80;99.90;;;;;;4976955;28;20473;-78
2022/01/24 07:00:40;;;;;;;26.87;23.87;;;-0.80;99.90;;;;;;4996653;28;20437;-77
2022/01/24 07:03:07;;;;;;;24.20;22.00;;;-0.70;99.90;;;;;;4978825;28;20459;-76
2022/01/24 07:05:34;;;;;;;24.13;21.87;;;-0.60;99.90;;;;;;4977712;28;20467;-77
2022/01/24 07:08:01;;;;;;;24.87;22.40;;;-0.60;99.90;;;;;;4985578;28;20453;-77
2022/01/24 07:10:28;;;;;;;24.90;22.23;;;-0.60;99.90;;;;;;5000844;28;20440;-78
2022/01/24 07:12:56;;;;;;;23.50;21.20;;;-0.60;99.90;;;;;;4990940;28;20543;-77
2022/01/24 07:15:30;;;;;;;24.83;22.37;;;-0.50;99.90;;;;;;5006685;28;20456;-77
2022/01/24 07:18:14;;;;;;;23.90;21.60;;;-0.50;99.90;;;;;;5000317;28;20446;-77
2022/01/24 07:20:41;;;;;;;23.60;21.37;;;-0.50;99.90;;;;;;4985598;28;20447;-77
2022/01/24 07:23:08;;;;;;;23.83;21.53;;;-0.40;99.90;;;;;;4988951;28;20456;-77
2022/01/24 07:25:35;;;;;;;24.33;21.93;;;-0.40;99.90;;;;;;5002354;28;20435;-77
2022/01/24 07:28:02;;;;;;;25.93;23.23;;;-0.30;99.90;;;;;;5000159;28;20925;-78
2022/01/24 07:30:29;;;;;;;25.00;22.60;;;-0.20;99.90;;;;;;4987440;28;20460;-78
2022/01/24 07:32:56;;;;;;;23.47;21.30;;;-0.10;99.90;;;;;;5004472;28;20492;-77
2022/01/24 07:35:24;;;;;;;23.23;20.93;;;-0.10;99.90;;;;;;5012482;28;20449;-78
2022/01/24 07:37:51;;;;;;;25.10;22.53;;;-0.10;99.90;;;;;;4987304;28;20472;-77
2022/01/24 07:40:18;;;;;;;22.87;20.60;;;-0.10;99.90;;;;;;5007370;28;20472;-78
2022/01/24 07:42:57;;;;;;;23.07;20.80;;;0.00;99.90;;;;;;4992431;28;20460;-77
2022/01/24 07:45:27;;;;;;;22.93;20.70;;;0.10;99.90;;;;;;4989819;28;21023;-77
2022/01/24 07:47:54;;;;;;;25.73;21.17;;;0.20;99.90;;;;;;4990209;28;20550;-78
2022/01/24 07:50:25;;;;;;;24.30;21.97;;;0.20;99.90;;;;;;4989560;28;21019;-77
2022/01/24 07:52:52;;;;;;;24.93;22.43;;;0.20;99.90;;;;;;4990973;28;20452;-77
2022/01/24 07:55:19;;;;;;;22.87;20.57;;;0.30;99.90;;;;;;5006212;28;20439;-77
2022/01/24 07:57:46;;;;;;;23.73;20.40;;;0.40;99.90;;;;;;4993601;28;20498;-77
2022/01/24 08:00:14;;;;;;;21.40;19.10;;;0.40;99.90;;;;;;5006178;28;20475;-77
2022/01/24 08:02:42;;;;;;;21.37;19.17;;;0.50;99.90;;;;;;4987027;28;20458;-77
2022/01/24 08:05:10;;;;;;;22.27;19.60;;;0.50;99.90;;;;;;5005205;28;20437;-78
2022/01/24 08:07:39;;;;;;;22.23;19.93;;;0.60;99.90;;;;;;5010634;28;20799;-77
2022/01/24 08:10:07;;;;;;;24.67;20.87;;;0.60;99.90;;;;;;5005992;28;20878;-77
2022/01/24 08:12:35;;;;;;;23.87;21.47;;;0.70;99.90;;;;;;4998923;28;20449;-79
2022/01/24 08:15:03;;;;;;;23.63;21.27;;;0.70;99.90;;;;;;5014304;28;20428;-77
2022/01/24 08:17:30;;;;;;;23.13;20.83;;;0.90;99.90;;;;;;5000252;28;20481;-77
2022/01/24 08:19:57;;;;;;;23.57;21.37;;;1.00;99.90;;;;;;4979053;28;20893;-78
2022/01/24 08:22:25;;;;;;;24.50;21.90;;;1.30;99.90;;;;;;4987713;28;20456;-79
2022/01/24 08:24:53;;;;;;;24.50;22.10;;;1.30;99.90;;;;;;4988291;28;20992;-77
2022/01/24 08:27:20;;;;;;;27.23;23.93;;;1.50;99.90;;;;;;4985547;28;20490;-77
2022/01/24 08:29:48;;;;;;;27.73;25.03;;;1.80;99.90;;;;;;4982992;28;20477;-77
2022/01/24 08:32:15;;;;;;;29.17;25.67;;;2.10;99.90;;;;;;4988570;28;20455;-77
2022/01/24 08:34:42;;;;;;;26.93;24.23;;;2.30;99.90;;;;;;4977818;28;20455;-77
2022/01/24 08:37:09;;;;;;;27.97;25.27;;;2.70;99.90;;;;;;4984034;28;20482;-77
2022/01/24 08:39:36;;;;;;;27.80;25.10;;;3.10;99.90;;;;;;4975726;28;20482;-77
2022/01/24 08:42:14;;;;;;;27.80;25.03;;;3.50;99.90;;;;;;4993833;28;20443;-77
2022/01/24 08:47:27;;;;;;;26.37;23.73;;;3.80;99.90;;;;;;5004504;28;20427;-76
2022/01/24 08:49:54;;;;;;;26.77;23.27;;;3.90;99.90;;;;;;5004039;28;20543;-77
2022/01/24 08:52:22;;;;;;;25.23;22.80;;;4.10;99.90;;;;;;5011216;28;20700;-77
2022/01/24 08:54:49;;;;;;;25.00;22.30;;;4.00;99.90;;;;;;4985838;28;20604;-77
2022/01/24 08:57:21;;;;;;;24.00;21.50;;;4.20;99.90;;;;;;4986613;28;20721;-77
2022/01/24 08:59:48;;;;;;;18.93;14.20;;;4.40;99.90;;;;;;5007737;28;20248;-77
2022/01/24 09:02:15;;;;;;;18.30;13.37;;;4.40;99.90;;;;;;5004463;28;20200;-75
2022/01/24 09:04:42;;;;;;;17.90;13.40;;;4.50;99.90;;;;;;5005879;28;20197;-76
2022/01/24 09:07:10;;;;;;;14.67;12.27;;;4.70;99.90;;;;;;5001609;28;20189;-75
2022/01/24 09:09:38;;;;;;;16.67;13.17;;;4.70;99.90;;;;;;4991103;28;20216;-75
2022/01/24 09:12:11;;;;;;;17.87;13.23;;;4.80;99.90;;;;;;4983977;28;20213;-76
2022/01/24 09:14:40;;;;;;;12.93;10.87;;;4.90;99.90;;;;;;4986678;28;20229;-76
2022/01/24 09:17:07;;;;;;;15.93;11.90;;;4.90;99.90;;;;;;5001816;28;20214;-75
2022/01/24 09:19:34;;;;;;;16.17;11.57;;;4.90;99.90;;;;;;4986332;28;20252;-76
2022/01/24 09:22:01;;;;;;;15.43;13.13;;;4.80;99.90;;;;;;5003205;28;20670;-76
2022/01/24 09:24:28;;;;;;;15.57;13.97;;;4.80;99.90;;;;;;4998342;28;20567;-75
2022/01/24 09:26:54;;;;;;;17.03;15.27;;;4.60;99.90;;;;;;5005023;28;20189;-75
2022/01/24 09:29:21;;;;;;;15.57;13.93;;;4.60;99.90;;;;;;5003567;28;20217;-79
2022/01/24 09:31:50;;;;;;;14.70;13.20;;;4.50;99.90;;;;;;4991055;28;20262;-76
2022/01/24 09:34:17;;;;;;;16.10;14.50;;;4.50;99.90;;;;;;5003071;28;20197;-77
2022/01/24 09:36:43;;;;;;;17.17;15.47;;;4.40;99.90;;;;;;5007182;28;20584;-77
2022/01/24 09:39:12;;;;;;;16.90;15.10;;;4.30;99.90;;;;;;5005402;28;20227;-77
2022/01/24 09:41:39;;;;;;;15.93;14.33;;;4.20;99.90;;;;;;5006539;28;20200;-77
2022/01/24 09:44:07;;;;;;;20.43;18.70;;;4.10;99.90;;;;;;4979700;28;20197;-76
2022/01/24 09:46:36;;;;;;;18.83;17.13;;;4.10;99.90;;;;;;4970789;28;20240;-77
2022/01/24 09:49:04;;;;;;;18.53;16.93;;;4.00;99.90;;;;;;4976277;28;20319;-77
2022/01/24 09:51:33;;;;;;;20.30;18.70;;;4.10;99.90;;;;;;5003237;28;20610;-79
2022/01/24 09:54:00;;;;;;;12.73;11.27;;;4.10;99.90;;;;;;5009075;28;20197;-78
2022/01/24 09:56:28;;;;;;;19.93;18.17;;;4.10;99.90;;;;;;4998372;28;20651;-77
2022/01/24 09:58:55;;;;;;;19.93;18.23;;;4.10;99.90;;;;;;5000962;28;20227;-77
2022/01/24 10:01:23;;;;;;;18.80;17.30;;;4.10;99.90;;;;;;5000805;28;20265;-78
2022/01/24 10:04:15;;;;;;;18.63;17.03;;;4.20;99.90;;;;;;5007448;28;20228;-78
2022/01/24 10:07:02;;;;;;;19.50;17.60;;;4.30;99.90;;;;;;4994945;28;20200;-76
2022/01/24 10:09:30;;;;;;;19.67;18.07;;;4.20;99.90;;;;;;4979399;28;20674;-77
2022/01/24 10:12:27;;;;;;;19.03;17.47;;;4.30;99.90;;;;;;4987173;28;20198;-77
2022/01/24 10:17:43;;;;;;;18.70;17.10;;;4.40;99.90;;;;;;5006223;28;20212;-80
2022/01/24 10:20:19;;;;;;;17.67;16.27;;;4.40;99.90;;;;;;5001950;28;20301;-79
2022/01/24 10:23:06;;;;;;;18.80;16.97;;;4.50;99.90;;;;;;4986790;28;20199;-78
2022/01/24 10:25:33;;;;;;;19.30;17.50;;;4.50;99.90;;;;;;5003400;28;20197;-79
2022/01/24 10:28:04;;;;;;;18.77;17.13;;;4.50;99.90;;;;;;4990776;28;20230;-76
2022/01/24 10:30:32;;;;;;;19.27;17.67;;;4.60;99.90;;;;;;4978962;28;20258;-78
2022/01/24 10:33:00;;;;;;;20.60;18.87;;;4.60;99.90;;;;;;5003329;28;20197;-78
2022/01/24 10:35:33;;;;;;;19.60;17.80;;;4.70;99.90;;;;;;5006876;28;20192;-78
2022/01/24 10:38:28;;;;;;;19.33;17.50;;;4.70;99.90;;;;;;5004099;28;20237;-78
2022/01/24 10:41:09;;;;;;;18.53;17.03;;;4.70;99.90;;;;;;4999920;28;20193;-76
2022/01/24 10:43:38;;;;;;;17.90;16.30;;;4.70;99.90;;;;;;4980870;28;20201;-77
2022/01/24 10:46:06;;;;;;;18.00;16.50;;;4.70;99.90;;;;;;4987923;28;20192;-78
2022/01/24 10:48:35;;;;;;;18.33;16.63;;;4.70;99.90;;;;;;4986191;28;20213;-77
2022/01/24 10:51:09;;;;;;;18.33;16.60;;;4.80;99.90;;;;;;4990579;28;20196;-77
2022/01/24 10:53:39;;;;;;;18.17;16.63;;;4.80;99.90;;;;;;4997182;28;20191;-77
2022/01/24 10:56:35;;;;;;;17.23;15.83;;;4.80;99.90;;;;;;5007234;28;20229;-78
2022/01/24 10:59:14;;;;;;;16.90;15.50;;;5.00;99.90;;;;;;4998759;28;20240;-79
2022/01/24 11:01:43;;;;;;;17.17;15.77;;;5.00;99.90;;;;;;4996947;28;20641;-77
2022/01/24 11:04:13;;;;;;;17.77;16.27;;;5.00;99.90;;;;;;4986318;28;20349;-77
2022/01/24 11:06:43;;;;;;;17.67;16.17;;;4.90;99.90;;;;;;5003693;28;20256;-77
2022/01/24 11:09:12;;;;;;;17.73;16.23;;;5.00;99.90;;;;;;4984986;28;20210;-77
2022/01/24 11:11:39;;;;;;;17.83;16.37;;;5.00;99.90;;;;;;4991183;28;20670;-77
2022/01/24 11:14:08;;;;;;;18.20;16.63;;;4.90;99.90;;;;;;5003966;28;20256;-78
2022/01/24 11:16:36;;;;;;;16.17;14.53;;;4.90;99.90;;;;;;4997910;28;20209;-79
2022/01/24 11:19:04;;;;;;;12.40;10.23;;;5.00;99.90;;;;;;4996881;28;20217;-78
2022/01/24 11:21:33;;;;;;;11.00;9.23;;;5.00;99.90;;;;;;5004066;28;20256;-80
2022/01/24 11:24:05;;;;;;;11.03;8.53;;;5.00;99.90;;;;;;5010168;28;20279;-81
2022/01/24 11:26:32;;;;;;;10.93;8.40;;;5.10;99.90;;;;;;5007041;28;20225;-81
2022/01/24 11:28:59;;;;;;;10.53;8.97;;;5.10;99.90;;;;;;5012357;28;20217;-80
2022/01/24 11:31:29;;;;;;;10.83;9.67;;;5.10;99.90;;;;;;5009852;28;20208;-80
2022/01/24 11:34:01;;;;;;;12.23;9.30;;;5.10;99.90;;;;;;4987129;28;20701;-79
2022/01/24 11:36:37;;;;;;;11.57;8.80;;;5.10;99.90;;;;;;4996775;28;20196;-81
2022/01/24 11:39:07;;;;;;;10.53;9.00;;;5.20;99.90;;;;;;4994078;28;20287;-81
2022/01/24 11:41:38;;;;;;;11.27;9.30;;;5.20;99.90;;;;;;5011176;28;20681;-82
2022/01/24 11:44:11;;;;;;;11.13;9.37;;;5.20;99.90;;;;;;5006133;28;20200;-79
2022/01/24 11:46:44;;;;;;;10.63;8.53;;;5.30;99.90;;;;;;4991865;28;20299;-80
2022/01/24 11:49:13;;;;;;;9.40;8.43;;;5.30;99.90;;;;;;5009141;28;20224;-77
2022/01/24 11:51:42;;;;;;;10.90;8.53;;;5.40;99.90;;;;;;5007152;28;20224;-77
2022/01/24 11:54:31;;;;;;;9.43;7.87;;;5.40;99.90;;;;;;4983194;28;20217;-80
2022/01/24 11:57:19;;;;;;;9.20;7.93;;;5.50;99.90;;;;;;4978577;28;20221;-78
2022/01/24 11:59:47;;;;;;;9.90;8.00;;;5.50;99.90;;;;;;4996994;28;20311;-80
2022/01/24 12:02:16;;;;;;;10.20;9.00;;;5.50;99.90;;;;;;5012621;28;20197;-78
2022/01/24 12:04:55;;;;;;;10.10;8.40;;;5.60;99.90;;;;;;4999058;28;20197;-79
2022/01/24 12:07:23;;;;;;;9.17;7.53;;;5.60;99.90;;;;;;4984290;28;20598;-80
2022/01/24 12:09:53;;;;;;;10.43;8.33;;;5.70;99.90;;;;;;4980867;28;20646;-77
2022/01/24 12:12:46;;;;;;;10.60;9.37;;;5.80;99.90;;;;;;4995811;28;20209;-77
2022/01/24 12:16:00;;;;;;;16.37;14.87;;;5.80;99.90;;;;;;4995287;28;20234;-78
2022/01/24 12:19:06;;;;;;;17.93;16.40;;;5.80;99.90;;;;;;4958893;28;20286;-78
2022/01/24 12:21:36;;;;;;;17.83;16.37;;;5.80;99.90;;;;;;4975571;28;20684;-78
2022/01/24 12:24:06;;;;;;;16.37;15.13;;;5.90;99.90;;;;;;4999956;28;20285;-79
2022/01/24 12:26:37;;;;;;;17.33;15.93;;;6.00;99.90;;;;;;4991702;28;20288;-80
2022/01/24 12:29:09;;;;;;;16.13;14.93;;;6.00;99.90;;;;;;5001795;28;20221;-80
2022/01/24 12:31:44;;;;;;;16.83;15.50;;;6.10;99.90;;;;;;4999143;28;20227;-80
2022/01/24 12:34:18;;;;;;;16.80;15.40;;;6.10;99.90;;;;;;5004590;28;20227;-78
2022/01/24 12:37:00;;;;;;;16.57;15.17;;;6.10;99.90;;;;;;5008789;28;20655;-77
2022/01/24 12:39:33;;;;;;;16.37;15.07;;;6.20;99.90;;;;;;5005717;28;20648;-79
2022/01/24 12:42:06;;;;;;;16.33;15.13;;;6.20;99.90;;;;;;4987082;28;20224;-79
2022/01/24 12:47:24;;;;;;;16.90;15.70;;;6.30;99.90;;;;;;5005507;28;20209;-78
2022/01/24 12:49:51;;;;;;;16.93;15.60;;;6.30;99.90;;;;;;5006353;28;20794;-78
2022/01/24 12:52:20;;;;;;;16.53;15.23;;;6.30;99.90;;;;;;5005359;28;20221;-77
2022/01/24 12:54:50;;;;;;;15.73;14.63;;;6.30;99.90;;;;;;4989434;28;20205;-78
2022/01/24 12:57:22;;;;;;;16.80;15.53;;;6.30;99.90;;;;;;4989627;28;20222;-78
2022/01/24 12:59:54;;;;;;;15.97;14.77;;;6.30;99.90;;;;;;5006137;28;20638;-82
2022/01/24 13:02:26;;;;;;;15.77;14.57;;;6.30;99.90;;;;;;4999770;28;20257;-80
2022/01/24 13:04:59;;;;;;;15.20;14.00;;;6.40;99.90;;;;;;5000236;28;20256;-79
2022/01/24 13:07:26;;;;;;;15.50;14.30;;;6.50;99.90;;;;;;4988334;28;20206;-80
2022/01/24 13:10:01;;;;;;;15.20;13.90;;;6.50;99.90;;;;;;4983609;28;20233;-81
2022/01/24 13:12:29;;;;;;;16.10;14.70;;;6.50;99.90;;;;;;5002331;28;20232;-79
2022/01/24 13:15:00;;;;;;;14.90;13.80;;;6.50;99.90;;;;;;5002366;28;20209;-80
2022/01/24 13:23:22;;;;;;;15.03;13.93;;;6.60;99.90;;;;;;4925372;29;20228;-78
2022/01/24 13:25:49;;;;;;;13.73;12.63;;;6.60;99.90;;;;;;4951179;29;20209;-78
2022/01/24 13:28:19;;;;;;;13.03;12.03;;;6.60;99.90;;;;;;4978504;28;20626;-78
2022/01/24 13:30:48;;;;;;;14.10;13.00;;;6.60;99.90;;;;;;5011509;28;20285;-79
2022/01/24 13:33:19;;;;;;;13.50;12.50;;;6.70;99.90;;;;;;4988051;28;20585;-79
2022/01/24 13:35:48;;;;;;;13.60;12.50;;;6.70;99.90;;;;;;5009585;28;20197;-78
2022/01/24 13:38:17;;;;;;;12.77;11.60;;;6.70;99.90;;;;;;5009058;28;20222;-79
2022/01/24 13:40:52;;;;;;;13.23;12.13;;;6.70;99.90;;;;;;5011194;28;20193;-79
2022/01/24 13:43:37;;;;;;;12.83;11.73;;;6.70;99.90;;;;;;5010386;28;20207;-79
2022/01/24 13:46:06;;;;;;;13.23;12.13;;;6.70;99.90;;;;;;5011652;28;20185;-78
2022/01/24 13:48:40;;;;;;;13.67;12.47;;;6.70;99.90;;;;;;4999984;28;20214;-80
2022/01/24 13:51:08;;;;;;;13.40;12.40;;;6.70;99.90;;;;;;4980897;28;20681;-78
2022/01/24 13:53:40;;;;;;;13.27;12.27;;;6.80;99.90;;;;;;4997179;28;20749;-80
2022/01/24 13:56:26;;;;;;;14.90;13.90;;;6.80;99.90;;;;;;5007094;28;20200;-79
2022/01/24 13:59:03;;;;;;;15.17;14.07;;;6.80;99.90;;;;;;5008423;28;20710;-80
2022/01/24 14:01:31;;;;;;;12.87;11.97;;;6.70;99.90;;;;;;4987048;28;20205;-79
2022/01/24 14:03:59;;;;;;;13.80;12.80;;;6.80;99.90;;;;;;5010363;28;20202;-80
2022/01/24 14:12:50;;;;;;;13.47;12.47;;;6.80;99.90;;;;;;4995478;23;20241;-84
2022/01/24 14:15:25;;;;;;;13.10;12.20;;;6.80;99.90;;;;;;4983130;28;20199;-78
2022/01/24 14:18:24;;;;;;;14.07;12.83;;;6.80;99.90;;;;;;4980442;28;20300;-78
2022/01/24 14:20:54;;;;;;;13.47;12.43;;;6.80;99.90;;;;;;4976823;28;20274;-78